Ancona, Illinois
Current Conditions -  °F | °C
As of 5:55 AM on Friday 28 Nov 2014 (Local Time) from KPNT Reporting Station
Overcast Overcast  
Wind Chill:   Ceiling: 7000
Heat Index: 20°   Visibility: 10mi
Dew Point: 15°   Wind: 12mph
Humidity: 81%   Direction: 140°SE
Pressure: 30.31"   Gusts: NA
Location:  41.04°N, 88.87°W
Report Text: KPNT 281155Z AUTO 14010KT 10SM SCT055 BKN070 OVC100 M07/M09 A3031 RMK AO2 T10661094 11066 21093
Loading
Personal Weather Stations






























Interactive Weather Map New forecast layout! Learn more

10-Day Weather Forecast

Advertisements
Track Severe Weather on mobile